»·PEaware :: N235B KSMX-KBFL

N235B :: KSMX-KBFL

FLIGHT INFORMATION

Flight Status: Arrived
Operator: Privately registered:
United States
More flights under this callsign
Pilot: Jason D. (29273)
Aircraft: ECLIPSE 500
(EA50)
More flights by this aircraft type
Origin: KSMX Santa Maria Pub/Capt Hancock
United States
Destination: KBFL Meadows
United States
More flights between these airports :: More routes between these airports
Route: +KSMX KBFL
File this flight plan on PilotEdge
Remarks: CAT-5
Altitude:
(Current/Filed)
6,500ft
Speed:
(Current/Filed)
180kts
Departed: 03-May-20 05:18 PM
Arrived: 03-May-20 05:49 PM
Distance/Time
Traveled:
76nm/0:31
Distance/Time
To Go:
Arrived

Flight Plot

Page will automatically refresh every two minutes.


Map Options




Map Legend


Flown Route
Filed Route
Departure Airport
Arrival Airport
Navaid (VOR, NDB)
Fix

Horizontal Profiles

Position Reports

Time Latitude Longitude Heading Altitude Ground
Speed
03-May-20 17:01 34.900732 -120.451558 228 264ft 0kts
03-May-20 17:02 34.900732 -120.451558 228 264ft 0kts
03-May-20 17:03 34.900732 -120.451558 228 264ft 0kts
03-May-20 17:04 34.900732 -120.451558 228 264ft 0kts
03-May-20 17:05 34.900732 -120.451558 228 264ft 0kts
03-May-20 17:06 34.900732 -120.451558 228 264ft 0kts
03-May-20 17:07 34.900732 -120.451558 228 264ft 0kts
03-May-20 17:08 34.900732 -120.451558 228 264ft 0kts
03-May-20 17:09 34.900732 -120.451558 228 264ft 0kts
03-May-20 17:10 34.900732 -120.451558 228 264ft 0kts
03-May-20 17:11 34.900732 -120.451558 228 264ft 0kts
03-May-20 17:12 34.899364 -120.451221 134 264ft 9kts
03-May-20 17:13 34.896831 -120.448199 135 264ft 20kts
03-May-20 17:14 34.893684 -120.445193 181 264ft 8kts
03-May-20 17:15 34.893370 -120.445210 183 264ft 0kts
03-May-20 17:16 34.893183 -120.446352 309 264ft 0kts
03-May-20 17:17 34.903472 -120.458500 313 404ft 151kts
03-May-20 17:18 34.933241 -120.488130 5 2872ft 140kts
03-May-20 17:19 34.929622 -120.446196 122 4418ft 139kts
03-May-20 17:20 34.921002 -120.405206 72 4996ft 125kts
03-May-20 17:21 34.928601 -120.366927 37 5155ft 111kts
03-May-20 17:22 34.944970 -120.331041 62 5548ft 141kts
03-May-20 17:23 34.963719 -120.276423 62 5626ft 200kts
03-May-20 17:24 34.987909 -120.212957 54 6189ft 207kts
03-May-20 17:25 35.016576 -120.149697 59 6498ft 226kts
03-May-20 17:26 35.045632 -120.078035 61 6493ft 242kts
03-May-20 17:27 35.074443 -120.004334 62 6490ft 236kts
03-May-20 17:28 35.097503 -119.930553 81 6279ft 232kts
03-May-20 17:29 35.126306 -119.861905 60 6516ft 235kts
03-May-20 17:30 35.156254 -119.788146 62 6514ft 246kts
03-May-20 17:31 35.185910 -119.711982 62 6510ft 249kts
03-May-20 17:32 35.215376 -119.635131 62 6500ft 248kts
03-May-20 17:33 35.241871 -119.565051 62 6489ft 240kts
03-May-20 17:34 35.270079 -119.490620 61 6487ft 242kts
03-May-20 17:35 35.297826 -119.417664 61 6489ft 232kts
03-May-20 17:36 35.324303 -119.347493 61 6488ft 228kts
03-May-20 17:37 35.349635 -119.279716 62 6434ft 197kts
03-May-20 17:38 35.373336 -119.216889 61 5520ft 207kts
03-May-20 17:39 35.397752 -119.152381 61 4605ft 211kts
03-May-20 17:40 35.430998 -119.136190 251 3433ft 181kts
03-May-20 17:41 35.415872 -119.096026 101 1859ft 200kts
03-May-20 17:42 35.427167 -119.075049 308 1273ft 146kts
03-May-20 17:43 35.443566 -119.106353 175 957ft 144kts
03-May-20 17:44 35.418061 -119.071012 133 1170ft 154kts
03-May-20 17:45 35.394359 -119.039853 95 1854ft 121kts
03-May-20 17:46 35.410103 -119.024645 306 1905ft 96kts
03-May-20 17:47 35.428583 -119.050115 316 480ft 86kts
03-May-20 17:48 35.436491 -119.058010 43 492ft 0kts
03-May-20 17:49 35.436491 -119.058010 43 492ft 0kts
03-May-20 17:50 35.436491 -119.058010 43 492ft 0kts
03-May-20 17:51 35.436491 -119.058010 43 492ft 0kts
03-May-20 17:52 35.436605 -119.057820 66 493ft 5kts
03-May-20 17:53 35.435099 -119.053933 15 496ft 12kts
03-May-20 17:54 35.435176 -119.053936 337 497ft 0kts
03-May-20 17:55 35.435176 -119.053936 337 497ft 0kts

Navigation Log

Ident Type
Flight plan parsing failed, navigation log unavailable